Time;durP1;ratioP1;P1;durP2;ratioP2;P2;SDS_P1;SDS_P2;PMS_P1;PMS_P2;Temp;Humidity;BMP_temperature;BMP_pressure;BME280_temperature;BME280_humidity;BME280_pressure;Samples;Min_cycle;Max_cycle;Signal;HPM_P1;HPM_P2
2021/12/19 00:00:53;;;;;;;18.00;9.50;;;;;;;;;;7386991;19;19991;-73
2021/12/19 00:08:49;;;;;;;21.25;10.15;;;;;;;;;;7385859;19;19997;-72
2021/12/19 00:11:14;;;;;;;26.85;10.05;;;;;;;;;;7386442;19;19999;-74
2021/12/19 00:13:40;;;;;;;22.55;9.32;;;;;;;;;;7386608;19;20006;-72
2021/12/19 00:16:07;;;;;;;20.10;9.32;;;;;;;;;;7386816;19;20461;-72
2021/12/19 00:18:32;;;;;;;24.10;10.95;;;;;;;;;;7385596;19;20463;-73
2021/12/19 00:20:57;;;;;;;25.80;11.45;;;;;;;;;;7386692;19;20015;-73
2021/12/19 00:23:23;;;;;;;18.90;8.77;;;;;;;;;;7383648;19;19998;-72
2021/12/19 00:25:48;;;;;;;18.42;9.05;;;;;;;;;;7386316;19;20009;-73
2021/12/19 00:28:14;;;;;;;18.15;8.25;;;;;;;;;;7386789;19;19999;-73
2021/12/19 00:30:39;;;;;;;19.95;8.98;;;;;;;;;;7388209;19;20092;-72
2021/12/19 00:33:04;;;;;;;20.40;8.73;;;;;;;;;;7384571;19;20043;-72
2021/12/19 00:35:30;;;;;;;25.90;10.30;;;;;;;;;;7386546;19;20453;-73
2021/12/19 00:37:55;;;;;;;25.88;10.55;;;;;;;;;;7398014;19;20710;-72
2021/12/19 00:40:21;;;;;;;16.85;8.20;;;;;;;;;;7391759;19;19995;-73
2021/12/19 00:42:51;;;;;;;20.42;9.32;;;;;;;;;;7390989;19;20024;-73
2021/12/19 00:45:28;;;;;;;21.50;9.43;;;;;;;;;;7393877;19;20010;-73
2021/12/19 00:47:54;;;;;;;22.83;9.40;;;;;;;;;;7393397;19;19998;-71
2021/12/19 00:50:19;;;;;;;22.58;10.10;;;;;;;;;;7390007;19;20001;-72
2021/12/19 00:52:46;;;;;;;18.88;9.25;;;;;;;;;;7391337;19;19995;-73
2021/12/19 00:55:15;;;;;;;35.35;13.45;;;;;;;;;;7392509;19;20090;-72
2021/12/19 00:57:41;;;;;;;17.77;9.13;;;;;;;;;;7392834;19;19990;-72
2021/12/19 01:00:09;;;;;;;17.08;9.18;;;;;;;;;;7392439;19;20485;-73
2021/12/19 01:02:35;;;;;;;28.42;10.60;;;;;;;;;;7391397;19;20003;-73
2021/12/19 01:05:01;;;;;;;19.52;9.30;;;;;;;;;;7392792;19;20002;-72
2021/12/19 01:07:26;;;;;;;20.88;9.00;;;;;;;;;;7392847;19;20001;-72
2021/12/19 01:09:52;;;;;;;19.33;9.25;;;;;;;;;;7389641;19;20006;-73
2021/12/19 01:12:17;;;;;;;24.35;10.48;;;;;;;;;;7391075;19;20406;-73
2021/12/19 01:14:42;;;;;;;25.77;10.63;;;;;;;;;;7392164;19;19991;-73
2021/12/19 01:17:08;;;;;;;23.02;11.48;;;;;;;;;;7392204;19;19991;-72
2021/12/19 01:19:35;;;;;;;25.52;10.80;;;;;;;;;;7394150;19;20097;-72
2021/12/19 01:22:00;;;;;;;20.63;9.98;;;;;;;;;;7392464;19;20477;-72
2021/12/19 01:24:25;;;;;;;24.95;11.30;;;;;;;;;;7391138;19;20255;-73
2021/12/19 01:26:51;;;;;;;22.48;10.30;;;;;;;;;;7391909;19;19998;-72
2021/12/19 01:29:16;;;;;;;24.83;10.85;;;;;;;;;;7390080;19;20017;-72
2021/12/19 01:31:42;;;;;;;25.20;10.07;;;;;;;;;;7391257;19;20074;-72
2021/12/19 01:34:12;;;;;;;20.80;10.00;;;;;;;;;;7391698;19;20438;-72
2021/12/19 01:36:37;;;;;;;25.95;10.57;;;;;;;;;;7391941;19;20013;-73
2021/12/19 01:39:03;;;;;;;21.17;9.85;;;;;;;;;;7390109;19;19995;-73
2021/12/19 01:41:28;;;;;;;36.22;13.05;;;;;;;;;;7390617;19;19994;-73
2021/12/19 01:43:53;;;;;;;27.75;12.30;;;;;;;;;;7391468;19;20019;-72
2021/12/19 01:46:19;;;;;;;26.42;12.07;;;;;;;;;;7391007;19;20007;-73
2021/12/19 01:48:44;;;;;;;33.70;13.77;;;;;;;;;;7388593;19;20019;-71
2021/12/19 01:51:09;;;;;;;27.35;10.90;;;;;;;;;;7391359;19;20002;-72
2021/12/19 01:53:35;;;;;;;27.77;11.02;;;;;;;;;;7390665;19;19990;-73
2021/12/19 01:56:03;;;;;;;27.45;11.52;;;;;;;;;;7390843;19;20504;-74
2021/12/19 01:58:29;;;;;;;28.38;11.05;;;;;;;;;;7390575;19;20031;-71
2021/12/19 02:00:56;;;;;;;26.25;12.38;;;;;;;;;;7390298;19;19999;-73
2021/12/19 02:03:23;;;;;;;32.60;12.32;;;;;;;;;;7388757;19;20374;-72
2021/12/19 02:05:48;;;;;;;25.67;11.38;;;;;;;;;;7391249;19;20019;-73
2021/12/19 02:08:14;;;;;;;25.10;11.07;;;;;;;;;;7390056;19;19998;-72
2021/12/19 02:10:41;;;;;;;23.55;10.43;;;;;;;;;;7392571;19;19994;-72
2021/12/19 02:13:10;;;;;;;26.00;11.75;;;;;;;;;;7388674;19;20067;-73
2021/12/19 02:15:37;;;;;;;21.15;10.27;;;;;;;;;;7390332;19;20032;-72
2021/12/19 02:18:12;;;;;;;24.17;10.32;;;;;;;;;;7389906;19;20011;-72
2021/12/19 02:20:41;;;;;;;25.83;9.82;;;;;;;;;;7393553;19;20031;-72
2021/12/19 02:23:09;;;;;;;28.23;11.18;;;;;;;;;;7387314;19;19999;-72
2021/12/19 02:25:35;;;;;;;18.88;8.55;;;;;;;;;;7389956;19;20018;-72
2021/12/19 02:28:01;;;;;;;21.13;9.88;;;;;;;;;;7389708;19;19994;-72
2021/12/19 02:30:27;;;;;;;41.85;15.20;;;;;;;;;;7387246;19;19999;-73
2021/12/19 02:32:52;;;;;;;23.30;10.65;;;;;;;;;;7388467;19;20019;-72
2021/12/19 02:35:23;;;;;;;24.75;9.82;;;;;;;;;;7391366;19;20058;-73
2021/12/19 02:48:43;;;;;;;22.50;8.10;;;;;;;;;;7388107;19;20027;-73
2021/12/19 02:51:09;;;;;;;17.15;8.50;;;;;;;;;;7389048;19;20002;-72
2021/12/19 02:53:39;;;;;;;19.80;8.57;;;;;;;;;;7388164;19;20325;-72
2021/12/19 02:56:08;;;;;;;21.15;8.43;;;;;;;;;;7389130;19;20006;-72
2021/12/19 02:58:35;;;;;;;25.45;9.93;;;;;;;;;;7388227;19;19994;-72
2021/12/19 03:01:03;;;;;;;25.63;8.80;;;;;;;;;;7389390;19;20002;-73
2021/12/19 03:03:29;;;;;;;26.08;9.55;;;;;;;;;;7388563;19;19991;-73
2021/12/19 03:05:54;;;;;;;17.58;8.77;;;;;;;;;;7388492;19;20063;-72
2021/12/19 03:08:20;;;;;;;26.55;7.97;;;;;;;;;;7387259;19;19998;-72
2021/12/19 03:17:56;;;;;;;15.85;7.72;;;;;;;;;;7386528;19;20002;-73
2021/12/19 03:19:02;;;;;;;25.00;7.93;;;;;;;;;;7387353;19;20001;-72
2021/12/19 03:21:27;;;;;;;27.15;9.77;;;;;;;;;;7387571;19;19995;-72
2021/12/19 03:23:53;;;;;;;24.17;9.77;;;;;;;;;;7387352;19;20028;-72
2021/12/19 03:26:18;;;;;;;18.08;8.20;;;;;;;;;;7388063;19;20012;-73
2021/12/19 03:28:44;;;;;;;35.88;8.95;;;;;;;;;;7386866;19;19999;-73
2021/12/19 03:31:10;;;;;;;21.90;7.40;;;;;;;;;;7387803;19;20003;-72
2021/12/19 03:33:37;;;;;;;21.90;8.73;;;;;;;;;;7388316;19;19995;-72
2021/12/19 03:36:06;;;;;;;15.60;7.57;;;;;;;;;;7387745;19;20027;-72
2021/12/19 03:38:38;;;;;;;21.65;7.80;;;;;;;;;;7386335;19;20005;-72
2021/12/19 03:41:20;;;;;;;21.20;8.00;;;;;;;;;;7387400;19;20061;-73
2021/12/19 03:43:46;;;;;;;16.23;7.93;;;;;;;;;;7387836;19;20094;-73
2021/12/19 03:46:13;;;;;;;17.38;8.18;;;;;;;;;;7387579;19;20328;-71
2021/12/19 03:48:38;;;;;;;16.50;7.57;;;;;;;;;;7387999;19;20003;-72
2021/12/19 03:51:04;;;;;;;14.27;7.65;;;;;;;;;;7391076;19;20009;-72
2021/12/19 03:53:29;;;;;;;17.45;8.73;;;;;;;;;;7386984;19;20461;-73
2021/12/19 03:55:55;;;;;;;17.25;7.05;;;;;;;;;;7387423;19;19999;-70
2021/12/19 03:58:21;;;;;;;16.17;7.43;;;;;;;;;;7386469;19;20011;-71
2021/12/19 04:00:48;;;;;;;18.95;8.00;;;;;;;;;;7387313;19;20493;-72
2021/12/19 04:03:19;;;;;;;15.75;6.75;;;;;;;;;;7384811;19;20465;-72
2021/12/19 04:05:49;;;;;;;13.73;6.82;;;;;;;;;;7387302;19;20003;-72
2021/12/19 04:08:15;;;;;;;12.25;6.57;;;;;;;;;;7386037;19;20014;-72
2021/12/19 04:10:41;;;;;;;19.40;7.82;;;;;;;;;;7385906;19;20002;-71
2021/12/19 04:13:07;;;;;;;14.55;7.32;;;;;;;;;;7391600;19;19994;-71
2021/12/19 04:15:32;;;;;;;18.88;7.82;;;;;;;;;;7394872;19;20496;-72
2021/12/19 04:17:58;;;;;;;15.30;6.20;;;;;;;;;;7394228;19;20024;-72
2021/12/19 04:20:23;;;;;;;16.95;8.13;;;;;;;;;;7393660;19;20002;-72
2021/12/19 04:22:50;;;;;;;17.38;6.68;;;;;;;;;;7392681;19;20014;-71
2021/12/19 04:25:17;;;;;;;16.90;7.07;;;;;;;;;;7393627;19;20607;-72
2021/12/19 04:27:42;;;;;;;17.38;6.38;;;;;;;;;;7394064;19;19998;-72
2021/12/19 04:30:12;;;;;;;14.98;6.65;;;;;;;;;;7390604;19;20017;-72
2021/12/19 04:32:42;;;;;;;15.20;6.22;;;;;;;;;;7391873;19;20027;-72
2021/12/19 04:35:09;;;;;;;13.13;6.65;;;;;;;;;;7394611;19;19999;-72
2021/12/19 04:40:28;;;;;;;10.13;5.47;;;;;;;;;;7396759;19;20432;-71
2021/12/19 04:53:52;;;;;;;9.60;4.47;;;;;;;;;;7393046;19;20006;-71
2021/12/19 05:01:54;;;;;;;19.38;6.97;;;;;;;;;;7392188;19;20014;-72
2021/12/19 05:15:09;;;;;;;15.95;6.00;;;;;;;;;;7392479;19;20009;-72
2021/12/19 05:17:35;;;;;;;17.65;6.97;;;;;;;;;;7392958;19;19995;-72
2021/12/19 05:20:17;;;;;;;14.32;5.57;;;;;;;;;;7391344;19;20419;-71
2021/12/19 05:22:51;;;;;;;11.85;5.13;;;;;;;;;;7388327;19;20055;-72
2021/12/19 05:25:20;;;;;;;12.25;5.13;;;;;;;;;;7391766;19;20093;-71
2021/12/19 05:27:47;;;;;;;16.42;5.95;;;;;;;;;;7393863;19;20005;-71
2021/12/19 05:30:14;;;;;;;15.57;6.68;;;;;;;;;;7392393;19;20003;-71
2021/12/19 05:32:44;;;;;;;14.15;6.40;;;;;;;;;;7389939;19;19998;-71
2021/12/19 05:35:12;;;;;;;11.38;4.85;;;;;;;;;;7391761;19;20009;-72
2021/12/19 05:45:50;;;;;;;11.68;4.72;;;;;;;;;;7391228;19;20009;-72
2021/12/19 05:48:16;;;;;;;14.80;6.15;;;;;;;;;;7389872;19;19995;-72
2021/12/19 05:50:42;;;;;;;12.77;5.30;;;;;;;;;;7389219;19;20028;-71
2021/12/19 05:53:09;;;;;;;11.65;5.00;;;;;;;;;;7388451;19;20027;-73
2021/12/19 05:55:34;;;;;;;10.80;5.10;;;;;;;;;;7390913;19;20195;-72
2021/12/19 05:57:59;;;;;;;13.15;6.13;;;;;;;;;;7390414;19;20489;-71
2021/12/19 06:00:25;;;;;;;21.85;6.63;;;;;;;;;;7390103;19;20330;-71
2021/12/19 06:02:50;;;;;;;10.10;4.13;;;;;;;;;;7388892;19;20062;-72
2021/12/19 06:05:16;;;;;;;37.80;6.28;;;;;;;;;;7391357;19;20007;-71
2021/12/19 06:07:42;;;;;;;14.88;5.57;;;;;;;;;;7390555;19;20433;-71
2021/12/19 06:10:09;;;;;;;8.85;4.53;;;;;;;;;;7387400;19;19999;-71
2021/12/19 06:12:36;;;;;;;12.80;5.18;;;;;;;;;;7388924;19;20006;-72
2021/12/19 06:15:02;;;;;;;10.80;3.78;;;;;;;;;;7390395;19;20058;-72
2021/12/19 06:17:27;;;;;;;11.65;4.97;;;;;;;;;;7391774;19;20003;-71
2021/12/19 06:19:53;;;;;;;14.38;5.18;;;;;;;;;;7391860;19;20475;-71
2021/12/19 06:22:18;;;;;;;10.93;4.53;;;;;;;;;;7388973;19;20023;-71
2021/12/19 06:24:43;;;;;;;11.10;5.20;;;;;;;;;;7389264;19;20002;-71
2021/12/19 06:27:08;;;;;;;13.52;5.57;;;;;;;;;;7389915;19;19998;-72
2021/12/19 06:29:34;;;;;;;15.38;5.95;;;;;;;;;;7388154;19;20005;-71
2021/12/19 06:32:01;;;;;;;13.05;5.00;;;;;;;;;;7392251;19;19999;-72
2021/12/19 06:34:27;;;;;;;9.75;4.78;;;;;;;;;;7389317;19;20024;-72
2021/12/19 06:36:52;;;;;;;11.00;4.65;;;;;;;;;;7389655;19;20355;-73
2021/12/19 06:39:22;;;;;;;12.70;5.20;;;;;;;;;;7387828;19;20388;-72
2021/12/19 06:41:48;;;;;;;12.63;4.80;;;;;;;;;;7389257;19;20010;-71
2021/12/19 06:44:14;;;;;;;13.65;5.43;;;;;;;;;;7389650;19;20002;-71
2021/12/19 06:46:39;;;;;;;13.45;6.07;;;;;;;;;;7389476;19;19995;-71
2021/12/19 06:49:05;;;;;;;13.23;5.20;;;;;;;;;;7388130;19;20317;-71
2021/12/19 06:51:32;;;;;;;13.70;4.53;;;;;;;;;;7389765;19;19999;-71
2021/12/19 06:53:57;;;;;;;10.07;4.68;;;;;;;;;;7388383;19;20091;-71
2021/12/19 06:56:22;;;;;;;12.55;5.00;;;;;;;;;;7389683;19;20456;-71
2021/12/19 06:58:48;;;;;;;14.23;5.22;;;;;;;;;;7388116;19;20054;-71
2021/12/19 07:01:13;;;;;;;14.63;5.70;;;;;;;;;;7388304;19;20468;-71
2021/12/19 07:03:38;;;;;;;23.23;5.95;;;;;;;;;;7389944;19;19994;-71
2021/12/19 07:06:04;;;;;;;11.60;4.57;;;;;;;;;;7389096;19;20496;-72
2021/12/19 07:08:29;;;;;;;17.30;6.45;;;;;;;;;;7391183;19;20489;-71
2021/12/19 07:10:55;;;;;;;15.40;5.60;;;;;;;;;;7387172;19;19999;-71
2021/12/19 07:13:21;;;;;;;14.65;5.45;;;;;;;;;;7386909;19;20027;-71
2021/12/19 07:15:51;;;;;;;11.20;4.50;;;;;;;;;;7388955;19;19998;-72
2021/12/19 07:18:17;;;;;;;11.82;5.05;;;;;;;;;;7387171;19;20126;-71
2021/12/19 07:20:43;;;;;;;18.55;6.28;;;;;;;;;;7388270;19;20098;-72
2021/12/19 07:23:19;;;;;;;13.60;5.97;;;;;;;;;;7386122;19;20002;-71
2021/12/19 07:25:45;;;;;;;11.85;4.85;;;;;;;;;;7388617;19;20035;-72
2021/12/19 07:28:11;;;;;;;13.00;5.47;;;;;;;;;;7387195;19;20461;-71
2021/12/19 07:30:37;;;;;;;9.93;4.68;;;;;;;;;;7386360;19;20488;-71
2021/12/19 07:33:04;;;;;;;12.50;5.13;;;;;;;;;;7386442;19;19998;-72
2021/12/19 07:35:33;;;;;;;21.58;6.90;;;;;;;;;;7388718;19;19999;-71
2021/12/19 07:37:59;;;;;;;20.35;6.90;;;;;;;;;;7387156;19;20007;-72
2021/12/19 07:40:27;;;;;;;14.13;6.00;;;;;;;;;;7386640;19;20020;-71
2021/12/19 07:42:54;;;;;;;16.95;6.45;;;;;;;;;;7386013;19;20002;-73
2021/12/19 07:45:19;;;;;;;15.77;6.32;;;;;;;;;;7386021;19;20003;-71
2021/12/19 07:47:45;;;;;;;16.50;5.97;;;;;;;;;;7387415;19;20003;-72
2021/12/19 07:50:12;;;;;;;15.70;5.55;;;;;;;;;;7385130;19;20001;-71
2021/12/19 07:52:39;;;;;;;10.90;4.82;;;;;;;;;;7386022;19;20455;-71
2021/12/19 07:55:05;;;;;;;13.38;4.88;;;;;;;;;;7386592;19;20008;-71
2021/12/19 07:57:30;;;;;;;18.30;5.85;;;;;;;;;;7390849;19;20031;-71
2021/12/19 07:59:56;;;;;;;14.88;5.47;;;;;;;;;;7389248;19;19995;-71
2021/12/19 08:02:21;;;;;;;21.42;6.45;;;;;;;;;;7386161;19;20007;-72
2021/12/19 08:04:47;;;;;;;11.30;4.70;;;;;;;;;;7386971;19;20002;-71
2021/12/19 08:07:13;;;;;;;13.57;5.60;;;;;;;;;;7386983;19;20403;-72
2021/12/19 08:09:56;;;;;;;12.70;4.97;;;;;;;;;;7384548;19;20003;-71
2021/12/19 08:12:21;;;;;;;13.00;4.63;;;;;;;;;;7385693;19;19999;-72
2021/12/19 08:14:47;;;;;;;17.98;5.38;;;;;;;;;;7386869;19;20010;-71
2021/12/19 08:17:12;;;;;;;10.80;4.68;;;;;;;;;;7387029;19;20330;-71
2021/12/19 08:19:38;;;;;;;15.75;6.03;;;;;;;;;;7385149;19;19999;-72
2021/12/19 08:22:03;;;;;;;9.25;4.45;;;;;;;;;;7385510;19;19998;-72
2021/12/19 08:24:29;;;;;;;9.57;4.43;;;;;;;;;;7388817;19;20002;-71
2021/12/19 08:26:54;;;;;;;9.52;3.92;;;;;;;;;;7386640;19;20015;-71
2021/12/19 08:29:20;;;;;;;11.13;4.47;;;;;;;;;;7384522;19;20066;-71
2021/12/19 08:31:45;;;;;;;10.45;4.70;;;;;;;;;;7385930;19;20007;-71
2021/12/19 08:34:11;;;;;;;12.05;4.68;;;;;;;;;;7386628;19;19998;-71
2021/12/19 08:36:37;;;;;;;17.80;5.10;;;;;;;;;;7386249;19;20492;-71
2021/12/19 08:39:04;;;;;;;13.63;5.28;;;;;;;;;;7384586;19;19998;-71
2021/12/19 08:41:29;;;;;;;9.55;5.30;;;;;;;;;;7385626;19;20481;-71
2021/12/19 08:43:54;;;;;;;9.60;4.18;;;;;;;;;;7385911;19;20062;-71
2021/12/19 08:46:20;;;;;;;11.18;5.22;;;;;;;;;;7388393;19;19999;-71
2021/12/19 08:48:45;;;;;;;12.95;5.93;;;;;;;;;;7389297;19;19997;-71
2021/12/19 08:51:11;;;;;;;13.05;5.07;;;;;;;;;;7385544;19;20432;-72
2021/12/19 08:53:36;;;;;;;14.13;5.32;;;;;;;;;;7385046;19;19998;-70
2021/12/19 08:56:02;;;;;;;18.00;5.97;;;;;;;;;;7385535;19;19999;-71
2021/12/19 08:58:29;;;;;;;12.40;5.00;;;;;;;;;;7387799;19;19998;-71
2021/12/19 09:00:58;;;;;;;13.30;4.95;;;;;;;;;;7392560;19;20006;-72
2021/12/19 09:03:23;;;;;;;22.52;4.80;;;;;;;;;;7390309;19;20007;-72
2021/12/19 09:05:49;;;;;;;16.40;6.57;;;;;;;;;;7393206;19;20043;-72
2021/12/19 09:08:14;;;;;;;17.15;5.70;;;;;;;;;;7391018;19;20010;-71
2021/12/19 09:10:40;;;;;;;10.88;4.97;;;;;;;;;;7390881;19;20340;-71
2021/12/19 09:13:05;;;;;;;11.82;5.28;;;;;;;;;;7390311;19;20456;-71
2021/12/19 09:15:30;;;;;;;13.90;5.40;;;;;;;;;;7392541;19;20002;-71
2021/12/19 09:17:56;;;;;;;21.30;7.50;;;;;;;;;;7392449;19;19995;-72
2021/12/19 09:20:21;;;;;;;12.50;6.18;;;;;;;;;;7391420;19;20002;-72
2021/12/19 09:22:46;;;;;;;13.13;5.38;;;;;;;;;;7390285;19;20460;-70
2021/12/19 09:25:12;;;;;;;15.52;6.22;;;;;;;;;;7391156;19;20026;-72
2021/12/19 09:27:37;;;;;;;11.25;4.95;;;;;;;;;;7391576;19;20002;-73
2021/12/19 09:30:04;;;;;;;13.40;5.00;;;;;;;;;;7389540;19;19995;-71
2021/12/19 09:32:29;;;;;;;12.27;5.00;;;;;;;;;;7388838;19;20014;-71
2021/12/19 09:34:54;;;;;;;11.18;5.13;;;;;;;;;;7391490;19;20388;-72
2021/12/19 09:37:20;;;;;;;13.15;4.95;;;;;;;;;;7396690;19;19995;-72
2021/12/19 09:39:47;;;;;;;16.92;6.30;;;;;;;;;;7395088;19;20944;-70
2021/12/19 09:42:14;;;;;;;9.07;4.50;;;;;;;;;;7390231;19;20471;-70
2021/12/19 09:44:40;;;;;;;10.32;4.40;;;;;;;;;;7391420;19;20478;-71
2021/12/19 09:47:07;;;;;;;12.40;4.88;;;;;;;;;;7391235;19;20001;-71
2021/12/19 09:49:34;;;;;;;12.70;5.13;;;;;;;;;;7389392;19;20058;-71
2021/12/19 09:52:01;;;;;;;14.90;6.40;;;;;;;;;;7390532;19;20425;-71
2021/12/19 09:54:27;;;;;;;11.18;5.25;;;;;;;;;;7390866;19;20283;-71
2021/12/19 09:56:52;;;;;;;37.05;7.70;;;;;;;;;;7390875;19;20432;-72
2021/12/19 09:59:20;;;;;;;15.68;6.32;;;;;;;;;;7390228;19;19994;-73
2021/12/19 10:01:47;;;;;;;16.90;5.65;;;;;;;;;;7389819;19;20009;-71
2021/12/19 10:04:45;;;;;;;19.55;5.78;;;;;;;;;;7390590;19;20066;-74
2021/12/19 10:07:13;;;;;;;13.95;5.93;;;;;;;;;;7389026;19;20003;-72
2021/12/19 10:09:56;;;;;;;20.38;6.70;;;;;;;;;;7386918;19;19999;-72
2021/12/19 10:14:59;;;;;;;10.07;4.78;;;;;;;;;;7390634;19;20010;-71
2021/12/19 10:17:25;;;;;;;11.65;4.93;;;;;;;;;;7394285;19;19999;-72
2021/12/19 10:19:53;;;;;;;12.27;4.80;;;;;;;;;;7389322;19;20058;-71
2021/12/19 10:22:30;;;;;;;12.02;5.45;;;;;;;;;;7388810;19;20006;-72
2021/12/19 10:25:09;;;;;;;10.82;4.03;;;;;;;;;;7389443;19;19998;-72
2021/12/19 10:27:34;;;;;;;9.93;5.13;;;;;;;;;;7393567;19;20037;-71
2021/12/19 10:30:00;;;;;;;12.05;5.40;;;;;;;;;;7391786;19;19999;-71
2021/12/19 10:32:26;;;;;;;14.48;4.97;;;;;;;;;;7388736;19;20363;-71
2021/12/19 10:35:12;;;;;;;36.92;5.80;;;;;;;;;;7389381;19;20058;-72
2021/12/19 10:37:38;;;;;;;11.70;4.90;;;;;;;;;;7390167;19;20061;-71
2021/12/19 10:40:04;;;;;;;9.75;4.75;;;;;;;;;;7388426;19;20005;-71
2021/12/19 10:42:34;;;;;;;10.90;5.18;;;;;;;;;;7388436;19;20006;-71
2021/12/19 10:47:44;;;;;;;9.73;4.82;;;;;;;;;;7390144;19;20511;-70
2021/12/19 10:50:09;;;;;;;10.63;4.80;;;;;;;;;;7387139;19;19994;-72
2021/12/19 10:52:38;;;;;;;13.45;4.93;;;;;;;;;;7388229;19;20058;-71
2021/12/19 10:55:09;;;;;;;11.90;4.95;;;;;;;;;;7388942;19;20003;-70
2021/12/19 10:57:39;;;;;;;12.18;5.10;;;;;;;;;;7389374;19;19995;-71
2021/12/19 11:00:22;;;;;;;10.35;4.97;;;;;;;;;;7387990;19;20006;-70
2021/12/19 11:02:47;;;;;;;11.10;4.85;;;;;;;;;;7388171;19;19999;-70
2021/12/19 11:05:44;;;;;;;9.98;4.95;;;;;;;;;;7388752;19;20001;-71
2021/12/19 11:08:10;;;;;;;10.98;5.20;;;;;;;;;;7384666;19;20002;-71
2021/12/19 11:10:38;;;;;;;11.90;5.22;;;;;;;;;;7386963;19;20345;-71
2021/12/19 11:13:07;;;;;;;23.35;6.95;;;;;;;;;;7387789;19;20009;-71
2021/12/19 11:15:33;;;;;;;10.57;5.07;;;;;;;;;;7388503;19;19998;-70
2021/12/19 11:17:59;;;;;;;14.85;5.75;;;;;;;;;;7392763;19;20343;-71
2021/12/19 11:20:24;;;;;;;22.85;6.22;;;;;;;;;;7389090;19;19999;-72
2021/12/19 11:22:49;;;;;;;11.75;5.63;;;;;;;;;;7387148;19;20520;-71
2021/12/19 11:25:15;;;;;;;10.48;4.60;;;;;;;;;;7387777;19;19996;-71
2021/12/19 11:27:43;;;;;;;11.75;5.50;;;;;;;;;;7388330;19;20366;-72
2021/12/19 11:30:10;;;;;;;11.95;5.75;;;;;;;;;;7386108;19;20338;-70
2021/12/19 11:33:13;;;;;;;14.35;5.47;;;;;;;;;;7386819;19;20018;-70
2021/12/19 11:35:45;;;;;;;11.35;5.22;;;;;;;;;;7387814;19;20341;-70
2021/12/19 11:38:11;;;;;;;11.18;4.97;;;;;;;;;;7384957;19;20034;-70
2021/12/19 11:40:38;;;;;;;10.32;5.00;;;;;;;;;;7387317;19;19999;-71
2021/12/19 11:43:08;;;;;;;13.38;4.97;;;;;;;;;;7386115;19;19998;-71
2021/12/19 11:45:44;;;;;;;10.70;5.55;;;;;;;;;;7387993;19;20164;-70
2021/12/19 11:48:24;;;;;;;;;;;;;;;;;;7386848;19;19998;-72
2021/12/19 11:50:58;;;;;;;7.25;3.35;;;;;;;;;;7385724;19;19934;-73
2021/12/19 11:53:25;;;;;;;10.15;4.97;;;;;;;;;;7385466;19;19999;-71
2021/12/19 11:56:06;;;;;;;10.40;5.53;;;;;;;;;;7387282;19;20536;-70
2021/12/19 11:58:49;;;;;;;10.93;5.43;;;;;;;;;;7386399;19;20407;-71
2021/12/19 12:01:27;;;;;;;8.95;4.68;;;;;;;;;;7387088;19;19999;-70
2021/12/19 12:04:03;;;;;;;11.05;5.22;;;;;;;;;;7386882;19;20011;-70
2021/12/19 12:06:32;;;;;;;11.90;5.60;;;;;;;;;;7389975;19;20002;-71
2021/12/19 12:09:08;;;;;;;7.45;4.45;;;;;;;;;;7388616;19;20100;-70
2021/12/19 12:11:40;;;;;;;8.93;4.72;;;;;;;;;;7386532;19;20367;-71
2021/12/19 12:14:20;;;;;;;12.30;5.65;;;;;;;;;;7386590;19;20089;-71
2021/12/19 12:17:04;;;;;;;10.35;5.45;;;;;;;;;;7386614;19;20456;-72
2021/12/19 12:19:39;;;;;;;13.82;6.85;;;;;;;;;;7385845;19;19999;-71
2021/12/19 12:25:03;;;;;;;10.07;4.95;;;;;;;;;;7385971;19;19987;-70
2021/12/19 12:28:02;;;;;;;9.93;4.95;;;;;;;;;;7386119;19;20006;-71
2021/12/19 12:30:32;;;;;;;13.30;4.85;;;;;;;;;;7384852;19;20031;-70
2021/12/19 12:33:01;;;;;;;8.95;4.20;;;;;;;;;;7388732;19;20002;-72
2021/12/19 12:35:28;;;;;;;15.10;5.07;;;;;;;;;;7393913;19;20002;-71
2021/12/19 12:37:55;;;;;;;9.77;4.60;;;;;;;;;;7393320;19;19994;-71
2021/12/19 12:40:50;;;;;;;10.05;4.85;;;;;;;;;;7392021;19;19999;-71
2021/12/19 12:43:21;;;;;;;11.80;5.55;;;;;;;;;;7390917;19;19999;-70
2021/12/19 12:45:50;;;;;;;10.10;5.10;;;;;;;;;;7394213;19;20070;-71
2021/12/19 12:48:53;;;;;;;9.02;5.18;;;;;;;;;;7392467;19;19999;-72
2021/12/19 12:51:29;;;;;;;8.30;4.47;;;;;;;;;;7391903;19;20014;-72
2021/12/19 12:54:10;;;;;;;9.45;4.43;;;;;;;;;;7392217;19;20009;-71
2021/12/19 12:56:47;;;;;;;13.80;4.95;;;;;;;;;;7395412;19;20108;-70
2021/12/19 12:59:15;;;;;;;10.88;5.22;;;;;;;;;;7395797;19;20456;-73
2021/12/19 13:01:49;;;;;;;9.90;5.45;;;;;;;;;;7392500;19;20114;-72
2021/12/19 13:04:14;;;;;;;13.88;6.00;;;;;;;;;;7392929;19;20013;-73
2021/12/19 13:06:56;;;;;;;12.52;4.85;;;;;;;;;;7392871;19;20009;-70
2021/12/19 13:09:33;;;;;;;13.63;4.53;;;;;;;;;;7389212;19;19999;-73
2021/12/19 13:12:05;;;;;;;10.98;4.95;;;;;;;;;;7391591;19;20394;-73
2021/12/19 13:14:33;;;;;;;8.23;3.95;;;;;;;;;;7392231;19;20469;-73
2021/12/19 13:17:21;;;;;;;7.95;3.90;;;;;;;;;;7392140;19;20028;-72
2021/12/19 13:19:53;;;;;;;8.48;4.43;;;;;;;;;;7391684;19;20121;-73
2021/12/19 13:22:23;;;;;;;9.93;4.32;;;;;;;;;;7390844;19;20001;-73
2021/12/19 13:24:50;;;;;;;10.23;5.03;;;;;;;;;;7392623;19;20005;-72
2021/12/19 13:27:20;;;;;;;17.33;6.60;;;;;;;;;;7392345;19;20042;-72
2021/12/19 13:30:18;;;;;;;12.23;5.22;;;;;;;;;;7389870;19;20058;-72
2021/12/19 13:32:55;;;;;;;12.80;4.72;;;;;;;;;;7388856;19;20458;-72
2021/12/19 13:35:23;;;;;;;10.48;4.90;;;;;;;;;;7392153;19;19998;-72
2021/12/19 13:37:56;;;;;;;12.20;3.97;;;;;;;;;;7391519;19;20029;-72
2021/12/19 13:40:23;;;;;;;15.55;4.63;;;;;;;;;;7390155;19;20002;-72
2021/12/19 13:42:52;;;;;;;8.90;4.40;;;;;;;;;;7389654;19;20005;-73
2021/12/19 13:45:21;;;;;;;8.35;4.10;;;;;;;;;;7391397;19;20465;-72
2021/12/19 13:47:47;;;;;;;10.30;5.00;;;;;;;;;;7395883;19;20392;-72
2021/12/19 13:50:14;;;;;;;14.18;6.57;;;;;;;;;;7388725;19;19999;-72
2021/12/19 13:52:39;;;;;;;10.73;4.95;;;;;;;;;;7389637;19;20460;-73
2021/12/19 13:55:10;;;;;;;7.90;4.65;;;;;;;;;;7389999;19;19998;-72
2021/12/19 13:57:36;;;;;;;8.40;4.18;;;;;;;;;;7391213;19;20437;-72
2021/12/19 14:00:05;;;;;;;9.02;4.80;;;;;;;;;;7389834;19;20421;-73
2021/12/19 14:02:39;;;;;;;17.65;5.63;;;;;;;;;;7393085;19;20027;-72
2021/12/19 14:05:31;;;;;;;8.38;4.20;;;;;;;;;;7390858;19;20006;-73
2021/12/19 14:07:57;;;;;;;8.95;4.07;;;;;;;;;;7390845;19;20429;-73
2021/12/19 14:10:23;;;;;;;8.68;4.53;;;;;;;;;;7388143;19;20019;-72
2021/12/19 14:13:05;;;;;;;10.88;4.75;;;;;;;;;;7389122;19;19998;-73
2021/12/19 14:15:30;;;;;;;8.10;4.60;;;;;;;;;;7390637;19;19991;-72
2021/12/19 14:17:56;;;;;;;10.05;4.78;;;;;;;;;;7390115;19;20015;-72
2021/12/19 14:20:35;;;;;;;7.15;3.88;;;;;;;;;;7389223;19;19994;-72
2021/12/19 14:23:17;;;;;;;8.10;4.07;;;;;;;;;;7388159;19;19998;-72
2021/12/19 14:25:42;;;;;;;6.90;3.85;;;;;;;;;;7390330;19;19994;-72
2021/12/19 14:28:33;;;;;;;7.78;4.53;;;;;;;;;;7389653;19;20481;-72
2021/12/19 14:31:03;;;;;;;9.40;4.72;;;;;;;;;;7388692;19;20521;-72
2021/12/19 14:33:39;;;;;;;8.15;4.50;;;;;;;;;;7387780;19;20015;-73
2021/12/19 14:36:09;;;;;;;8.15;4.95;;;;;;;;;;7392796;19;20004;-72
2021/12/19 14:38:38;;;;;;;8.73;4.90;;;;;;;;;;7392655;19;20488;-72
2021/12/19 14:41:06;;;;;;;7.53;4.45;;;;;;;;;;7390090;19;20002;-72
2021/12/19 14:43:34;;;;;;;9.05;4.93;;;;;;;;;;7389840;19;20029;-72
2021/12/19 14:46:01;;;;;;;12.25;5.07;;;;;;;;;;7389693;19;19999;-73
2021/12/19 14:48:34;;;;;;;7.65;4.28;;;;;;;;;;7389214;19;19991;-72
2021/12/19 14:51:11;;;;;;;7.80;4.18;;;;;;;;;;7387424;19;20444;-73
2021/12/19 14:53:41;;;;;;;10.43;5.40;;;;;;;;;;7389060;19;19998;-72
2021/12/19 14:56:10;;;;;;;11.40;5.22;;;;;;;;;;7389012;19;20005;-73
2021/12/19 14:58:42;;;;;;;7.65;4.47;;;;;;;;;;7388237;19;20054;-72
2021/12/19 15:01:17;;;;;;;10.95;5.03;;;;;;;;;;7388631;19;19995;-72
2021/12/19 15:03:56;;;;;;;10.00;5.05;;;;;;;;;;7389085;19;20800;-71
2021/12/19 15:06:23;;;;;;;12.85;5.43;;;;;;;;;;7389048;19;20333;-71
2021/12/19 15:08:54;;;;;;;8.43;4.68;;;;;;;;;;7387073;19;20483;-72
2021/12/19 15:11:21;;;;;;;10.57;5.03;;;;;;;;;;7386862;19;20002;-72
2021/12/19 15:13:47;;;;;;;9.60;4.70;;;;;;;;;;7388920;19;19998;-72
2021/12/19 15:16:13;;;;;;;8.55;4.70;;;;;;;;;;7388296;19;19998;-72
2021/12/19 15:18:39;;;;;;;5.00;3.10;;;;;;;;;;7387312;19;20001;-72
2021/12/19 15:21:05;;;;;;;7.45;4.25;;;;;;;;;;7387999;19;19994;-72
2021/12/19 15:23:34;;;;;;;7.30;4.22;;;;;;;;;;7387554;19;20062;-72
2021/12/19 15:26:00;;;;;;;7.75;4.18;;;;;;;;;;7391080;19;19990;-72
2021/12/19 15:28:26;;;;;;;6.43;3.67;;;;;;;;;;7390916;19;20002;-72
2021/12/19 15:30:54;;;;;;;8.43;4.20;;;;;;;;;;7387095;19;19991;-72
2021/12/19 15:33:20;;;;;;;8.38;4.18;;;;;;;;;;7386390;19;20029;-72
2021/12/19 15:35:47;;;;;;;12.50;4.55;;;;;;;;;;7388051;19;19998;-72
2021/12/19 15:38:13;;;;;;;8.55;4.30;;;;;;;;;;7386919;19;19991;-71
2021/12/19 15:40:39;;;;;;;8.48;3.97;;;;;;;;;;7387743;19;20013;-72
2021/12/19 15:43:05;;;;;;;7.95;4.55;;;;;;;;;;7385968;19;20005;-73
2021/12/19 15:45:32;;;;;;;8.23;4.47;;;;;;;;;;7387609;19;20001;-71
2021/12/19 15:47:57;;;;;;;8.63;4.88;;;;;;;;;;7387497;19;20019;-72